Time;durP1;ratioP1;P1;durP2;ratioP2;P2;SDS_P1;SDS_P2;PMS_P1;PMS_P2;Temp;Humidity;BMP_temperature;BMP_pressure;BME280_temperature;BME280_humidity;BME280_pressure;Samples;Min_cycle;Max_cycle;Signal;HPM_P1;HPM_P2
2023/02/09 00:01:13;;;;;;;13.15;9.85;;;5.00;57.50;;;;;;5031584;28;20611;-63
2023/02/09 00:03:40;;;;;;;9.27;8.20;;;5.00;57.50;;;;;;5052235;28;20170;-63
2023/02/09 00:06:07;;;;;;;10.45;8.27;;;5.10;57.40;;;;;;5054342;28;20185;-63
2023/02/09 00:08:34;;;;;;;11.40;8.60;;;5.10;57.00;;;;;;5054929;28;20178;-63
2023/02/09 00:11:03;;;;;;;13.85;9.35;;;5.10;56.90;;;;;;5053141;28;20240;-63
2023/02/09 00:13:29;;;;;;;11.48;9.00;;;5.10;57.10;;;;;;5054442;28;20293;-63
2023/02/09 00:15:57;;;;;;;13.27;8.53;;;5.30;57.20;;;;;;5053867;28;20269;-63
2023/02/09 00:18:25;;;;;;;11.48;8.98;;;5.30;56.70;;;;;;5054577;28;20231;-62
2023/02/09 00:21:06;;;;;;;12.27;9.27;;;5.40;56.80;;;;;;5045510;28;20209;-63
2023/02/09 00:23:33;;;;;;;11.82;9.40;;;5.50;56.60;;;;;;5034402;28;20182;-63
2023/02/09 00:26:00;;;;;;;15.07;9.05;;;5.60;56.20;;;;;;5033185;28;20183;-63
2023/02/09 00:28:26;;;;;;;13.15;9.07;;;5.40;56.00;;;;;;5044525;28;20538;-63
2023/02/09 00:30:52;;;;;;;12.67;10.17;;;5.40;56.20;;;;;;5053571;28;20178;-63
2023/02/09 00:33:18;;;;;;;12.83;8.70;;;5.40;56.30;;;;;;5054006;28;20463;-63
2023/02/09 00:35:44;;;;;;;11.80;8.80;;;5.40;56.20;;;;;;5034397;28;20552;-63
2023/02/09 00:38:10;;;;;;;13.90;9.17;;;5.50;56.20;;;;;;5054018;28;20178;-63
2023/02/09 00:40:37;;;;;;;11.93;9.10;;;5.60;56.00;;;;;;5053876;28;20449;-63
2023/02/09 00:43:03;;;;;;;13.90;9.55;;;5.60;55.90;;;;;;5053346;28;20362;-63
2023/02/09 00:45:29;;;;;;;12.98;9.15;;;5.60;55.80;;;;;;5053577;28;20175;-63
2023/02/09 00:47:55;;;;;;;10.63;8.47;;;5.60;55.30;;;;;;5052972;28;20181;-63
2023/02/09 00:50:21;;;;;;;11.15;8.73;;;5.40;55.50;;;;;;5053053;28;20208;-63
2023/02/09 00:52:47;;;;;;;10.07;9.00;;;5.40;55.80;;;;;;5034184;28;20185;-63
2023/02/09 00:55:13;;;;;;;11.10;9.20;;;5.20;55.80;;;;;;5037286;28;20460;-63
2023/02/09 00:57:38;;;;;;;12.03;8.70;;;5.10;56.30;;;;;;5053395;28;20170;-63
2023/02/09 01:00:05;;;;;;;9.57;8.57;;;4.60;56.80;;;;;;5048769;28;20189;-63
2023/02/09 01:02:31;;;;;;;11.55;9.05;;;4.80;57.40;;;;;;5016099;28;20185;-63
2023/02/09 01:04:57;;;;;;;12.83;8.20;;;5.00;57.30;;;;;;5015246;28;20273;-63
2023/02/09 01:07:22;;;;;;;13.10;9.20;;;5.10;57.20;;;;;;5031493;28;20210;-63
2023/02/09 01:09:48;;;;;;;11.67;9.20;;;5.30;57.00;;;;;;5032577;28;20174;-63
2023/02/09 01:12:14;;;;;;;13.17;10.20;;;5.40;56.80;;;;;;5033573;28;20175;-63
2023/02/09 01:14:40;;;;;;;12.90;7.93;;;5.30;56.60;;;;;;5033202;28;20554;-63
2023/02/09 01:17:05;;;;;;;12.00;8.57;;;5.30;56.70;;;;;;5032542;28;20417;-63
2023/02/09 01:19:31;;;;;;;10.43;8.60;;;5.40;56.60;;;;;;5015595;28;20400;-63
2023/02/09 01:21:57;;;;;;;12.27;9.37;;;5.20;56.30;;;;;;5038757;28;20181;-63
2023/02/09 01:24:23;;;;;;;12.60;9.43;;;5.30;56.50;;;;;;5052916;28;20391;-63
2023/02/09 01:26:48;;;;;;;11.63;8.90;;;5.50;56.50;;;;;;5034468;28;20182;-63
2023/02/09 01:29:17;;;;;;;10.80;8.97;;;5.50;56.60;;;;;;5053059;28;20419;-63
2023/02/09 01:31:43;;;;;;;13.20;8.95;;;5.40;56.50;;;;;;5053121;28;20178;-63
2023/02/09 01:34:16;;;;;;;10.35;8.55;;;5.60;56.70;;;;;;5052267;28;20535;-63
2023/02/09 01:36:42;;;;;;;10.55;8.70;;;5.70;57.10;;;;;;5048454;28;20186;-63
2023/02/09 01:39:10;;;;;;;14.43;10.10;;;5.60;58.20;;;;;;5048383;28;20193;-63
2023/02/09 01:41:36;;;;;;;11.57;8.98;;;5.60;59.20;;;;;;5045102;28;20970;-63
2023/02/09 01:44:05;;;;;;;11.90;8.82;;;5.30;57.30;;;;;;5049805;28;20210;-63
2023/02/09 01:46:33;;;;;;;12.98;10.23;;;5.30;57.10;;;;;;5034427;28;20211;-63
2023/02/09 01:49:22;;;;;;;12.98;10.27;;;5.30;57.30;;;;;;5014015;28;20245;-63
2023/02/09 01:51:51;;;;;;;10.73;8.18;;;5.30;57.00;;;;;;5014689;28;20175;-66
2023/02/09 01:54:22;;;;;;;11.73;9.00;;;5.30;57.20;;;;;;5032461;28;20626;-63
2023/02/09 01:56:54;;;;;;;12.88;9.70;;;5.30;57.20;;;;;;5032169;28;20178;-64
2023/02/09 01:59:20;;;;;;;28.98;9.55;;;5.10;56.90;;;;;;5033155;28;20230;-63
2023/02/09 02:01:46;;;;;;;12.75;8.57;;;5.00;57.30;;;;;;5032812;28;20178;-63
2023/02/09 02:04:12;;;;;;;11.67;8.23;;;5.00;57.50;;;;;;5035052;28;20646;-63
2023/02/09 02:06:38;;;;;;;13.18;8.85;;;5.10;57.70;;;;;;5042081;28;20443;-63
2023/02/09 02:09:10;;;;;;;10.70;8.48;;;5.10;58.10;;;;;;5051612;28;20186;-63
2023/02/09 02:11:37;;;;;;;11.10;9.10;;;5.20;58.50;;;;;;5037106;28;20229;-63
2023/02/09 02:14:03;;;;;;;11.93;9.57;;;5.20;59.10;;;;;;4997827;28;20211;-63
2023/02/09 02:16:49;;;;;;;11.60;9.30;;;5.20;59.80;;;;;;5032561;28;20174;-63
2023/02/09 02:19:47;;;;;;;11.23;8.65;;;5.10;59.60;;;;;;5014925;28;20733;-62
2023/02/09 02:22:22;;;;;;;14.00;9.88;;;5.00;59.00;;;;;;5034750;28;20178;-63
2023/02/09 02:25:24;;;;;;;11.60;8.57;;;5.00;60.50;;;;;;5031589;28;20186;-63
2023/02/09 02:28:04;;;;;;;11.80;8.15;;;4.90;60.20;;;;;;5052268;28;20288;-66
2023/02/09 02:30:36;;;;;;;12.95;9.77;;;4.90;59.40;;;;;;5054469;28;20178;-63
2023/02/09 02:33:26;;;;;;;10.68;9.35;;;4.90;59.50;;;;;;5041678;28;20557;-63
2023/02/09 02:36:14;;;;;;;10.80;8.90;;;4.90;59.10;;;;;;5017819;28;20217;-63
2023/02/09 02:38:56;;;;;;;15.13;10.73;;;4.90;58.60;;;;;;5018784;28;20253;-64
2023/02/09 02:42:46;;;;;;;14.50;9.90;;;4.90;58.50;;;;;;5036351;28;20226;-63
2023/02/09 02:44:19;;;;;;;12.25;9.77;;;5.00;58.60;;;;;;5042083;28;20197;-63
2023/02/09 02:47:06;;;;;;;13.67;9.83;;;4.90;58.30;;;;;;5038073;28;20174;-63
2023/02/09 02:49:47;;;;;;;11.10;9.48;;;4.90;58.50;;;;;;5055255;28;20412;-63
2023/02/09 02:52:13;;;;;;;13.27;9.38;;;5.00;58.80;;;;;;5055567;28;20162;-63
2023/02/09 02:54:50;;;;;;;13.17;10.57;;;5.00;58.50;;;;;;5056003;28;20228;-63
2023/02/09 02:57:20;;;;;;;15.35;10.00;;;5.00;58.70;;;;;;5055038;28;20181;-63
2023/02/09 03:00:05;;;;;;;14.00;10.20;;;5.00;59.90;;;;;;5056301;28;20183;-63
2023/02/09 03:02:46;;;;;;;12.77;10.77;;;5.00;60.60;;;;;;5046576;28;20183;-63
2023/02/09 03:05:13;;;;;;;12.70;9.70;;;4.90;61.00;;;;;;5035426;28;20176;-63
2023/02/09 03:07:39;;;;;;;13.27;8.80;;;4.90;61.00;;;;;;5035637;28;20602;-63
2023/02/09 03:10:38;;;;;;;14.10;9.93;;;4.90;60.90;;;;;;5035447;28;20181;-63
2023/02/09 03:13:37;;;;;;;12.93;9.77;;;4.80;59.90;;;;;;5020608;28;20193;-63
2023/02/09 03:16:15;;;;;;;13.27;9.98;;;4.80;59.20;;;;;;5034955;28;20205;-63
2023/02/09 03:19:14;;;;;;;14.25;10.23;;;4.90;59.20;;;;;;5035182;28;20170;-63
2023/02/09 03:22:07;;;;;;;15.73;10.20;;;4.80;58.60;;;;;;5038570;28;20178;-63
2023/02/09 03:24:43;;;;;;;13.20;9.07;;;4.90;58.80;;;;;;5037359;28;20233;-64
2023/02/09 03:27:23;;;;;;;14.60;9.35;;;4.90;59.30;;;;;;5017603;28;20505;-63
2023/02/09 03:29:54;;;;;;;13.77;10.40;;;4.90;59.30;;;;;;5035630;28;20163;-63
2023/02/09 03:32:22;;;;;;;12.55;9.10;;;4.90;59.50;;;;;;5038105;28;20185;-63
2023/02/09 03:34:48;;;;;;;11.52;9.52;;;5.00;59.00;;;;;;5035376;28;20211;-63
2023/02/09 03:37:14;;;;;;;14.05;9.85;;;5.00;58.80;;;;;;5017216;28;20636;-63
2023/02/09 03:39:40;;;;;;;13.53;9.57;;;4.90;58.30;;;;;;5035421;28;20185;-63
2023/02/09 03:42:06;;;;;;;13.45;9.20;;;4.90;58.10;;;;;;5034138;28;20463;-63
2023/02/09 03:44:32;;;;;;;13.40;9.10;;;4.90;58.30;;;;;;5017561;28;20522;-63
2023/02/09 03:47:01;;;;;;;11.55;9.25;;;4.90;58.60;;;;;;5034496;28;20834;-63
2023/02/09 03:49:30;;;;;;;12.48;9.85;;;4.90;58.80;;;;;;5035408;28;20240;-63
2023/02/09 03:51:59;;;;;;;13.90;9.77;;;4.80;58.50;;;;;;5033975;28;20633;-64
2023/02/09 03:54:26;;;;;;;13.40;9.63;;;4.80;58.40;;;;;;5017506;28;20256;-64
2023/02/09 03:56:51;;;;;;;11.32;9.10;;;4.90;58.60;;;;;;5034977;28;20180;-64
2023/02/09 03:59:17;;;;;;;15.97;9.80;;;4.80;58.50;;;;;;5034346;28;20174;-64
2023/02/09 04:01:43;;;;;;;13.63;10.27;;;4.80;58.60;;;;;;5038301;28;20525;-64
2023/02/09 04:04:09;;;;;;;15.27;10.17;;;4.80;58.60;;;;;;5054203;28;20213;-64
2023/02/09 04:06:35;;;;;;;17.10;11.50;;;4.80;58.70;;;;;;5052309;28;20174;-63
2023/02/09 04:09:02;;;;;;;13.70;9.23;;;4.90;58.70;;;;;;5034080;28;20308;-64
2023/02/09 04:11:27;;;;;;;12.43;9.45;;;4.90;58.60;;;;;;5034378;28;20421;-64
2023/02/09 04:13:54;;;;;;;14.27;10.57;;;4.90;58.60;;;;;;5054557;28;20202;-64
2023/02/09 04:16:19;;;;;;;13.27;10.80;;;4.90;58.90;;;;;;5035831;28;20408;-64
2023/02/09 04:18:45;;;;;;;15.97;10.70;;;4.80;58.60;;;;;;5052969;28;20554;-64
2023/02/09 04:21:11;;;;;;;12.93;9.93;;;4.90;58.80;;;;;;5053663;28;20411;-64
2023/02/09 04:23:37;;;;;;;13.38;10.35;;;4.90;58.90;;;;;;5053503;28;20456;-64
2023/02/09 04:26:03;;;;;;;13.13;10.03;;;4.90;58.80;;;;;;5054088;28;20263;-64
2023/02/09 04:28:29;;;;;;;15.88;10.90;;;4.90;58.70;;;;;;5016412;28;20511;-64
2023/02/09 04:30:55;;;;;;;15.97;11.70;;;4.90;58.70;;;;;;5033294;28;20257;-64
2023/02/09 04:33:22;;;;;;;13.93;10.80;;;4.90;58.80;;;;;;5048981;28;20638;-64
2023/02/09 04:35:48;;;;;;;14.85;10.93;;;4.90;58.80;;;;;;5054158;28;20182;-63
2023/02/09 04:38:18;;;;;;;15.17;13.73;;;4.80;58.50;;;;;;5053574;28;20166;-64
2023/02/09 04:40:44;;;;;;;14.13;10.73;;;4.70;58.80;;;;;;5052841;28;20213;-63
2023/02/09 04:43:10;;;;;;;13.77;10.82;;;4.50;58.70;;;;;;5047793;28;20181;-64
2023/02/09 04:45:40;;;;;;;15.87;11.77;;;4.50;59.10;;;;;;5048991;28;20190;-64
2023/02/09 04:48:07;;;;;;;17.60;13.52;;;4.50;59.60;;;;;;5051580;28;20928;-64
2023/02/09 04:50:33;;;;;;;14.93;10.60;;;4.60;59.80;;;;;;5053988;28;20178;-64
2023/02/09 04:52:59;;;;;;;19.13;11.65;;;4.60;60.10;;;;;;5053404;28;20551;-64
2023/02/09 04:55:25;;;;;;;13.77;10.15;;;4.60;60.10;;;;;;5053844;28;20182;-64
2023/02/09 05:00:35;;;;;;;15.95;12.55;;;4.70;62.50;;;;;;5033923;28;20173;-64
2023/02/09 05:03:01;;;;;;;13.83;11.40;;;4.60;62.80;;;;;;5029086;28;20522;-64
2023/02/09 05:05:27;;;;;;;14.90;13.30;;;4.60;63.20;;;;;;5053592;28;20416;-63
2023/02/09 05:07:52;;;;;;;15.53;11.93;;;4.50;62.80;;;;;;5053667;28;20173;-64
2023/02/09 05:10:18;;;;;;;13.53;10.40;;;4.50;61.50;;;;;;5051625;28;21255;-64
2023/02/09 05:12:44;;;;;;;17.37;11.50;;;4.20;60.80;;;;;;5053239;28;20216;-63
2023/02/09 05:15:09;;;;;;;15.70;10.87;;;4.30;61.10;;;;;;5052786;28;20243;-63
2023/02/09 05:17:35;;;;;;;12.67;9.97;;;4.30;60.90;;;;;;5050815;28;20199;-64
2023/02/09 05:20:01;;;;;;;14.47;9.93;;;4.10;60.50;;;;;;5016288;28;20591;-64
2023/02/09 05:22:27;;;;;;;15.13;11.00;;;4.00;60.60;;;;;;5033346;28;20528;-63
2023/02/09 05:24:53;;;;;;;15.40;11.40;;;4.00;61.40;;;;;;5015331;28;20178;-64
2023/02/09 05:27:18;;;;;;;14.90;10.90;;;4.10;61.40;;;;;;5031648;28;20182;-63
2023/02/09 05:29:44;;;;;;;14.20;11.57;;;4.00;61.10;;;;;;5051632;28;20177;-63
2023/02/09 05:32:10;;;;;;;13.53;10.70;;;4.20;61.40;;;;;;5044699;28;20561;-63
2023/02/09 05:34:36;;;;;;;15.17;11.20;;;4.10;60.70;;;;;;5015650;28;20646;-64
2023/02/09 05:37:02;;;;;;;17.27;12.70;;;4.10;60.80;;;;;;5033934;28;20510;-64
2023/02/09 05:39:28;;;;;;;15.20;13.33;;;4.20;61.20;;;;;;5015172;28;20186;-64
2023/02/09 05:44:38;;;;;;;16.55;10.82;;;4.10;62.00;;;;;;5053072;28;20177;-63
2023/02/09 05:47:04;;;;;;;15.87;11.37;;;4.20;61.30;;;;;;5037251;28;20183;-63
2023/02/09 05:49:29;;;;;;;17.20;11.13;;;4.20;60.90;;;;;;5014091;28;20182;-63
2023/02/09 05:51:55;;;;;;;15.17;13.00;;;4.30;60.90;;;;;;5032922;28;20433;-63
2023/02/09 05:54:21;;;;;;;17.47;12.17;;;4.30;61.00;;;;;;5032096;28;20863;-63
2023/02/09 05:56:46;;;;;;;16.97;12.30;;;4.30;60.90;;;;;;5047997;28;20185;-63
2023/02/09 05:59:12;;;;;;;15.50;11.80;;;4.40;61.10;;;;;;5050737;28;20558;-63
2023/02/09 06:01:38;;;;;;;15.37;11.63;;;4.50;60.90;;;;;;5046274;28;20198;-63
2023/02/09 06:04:05;;;;;;;17.48;10.70;;;4.40;61.10;;;;;;5049240;28;20180;-64
2023/02/09 06:06:30;;;;;;;16.05;12.25;;;4.40;60.70;;;;;;5020962;28;20186;-62
2023/02/09 06:08:56;;;;;;;17.43;13.77;;;4.40;61.20;;;;;;5042396;28;20197;-62
2023/02/09 06:11:22;;;;;;;22.23;15.73;;;4.30;60.60;;;;;;5041823;28;20705;-63
2023/02/09 06:13:48;;;;;;;18.00;13.60;;;4.00;61.20;;;;;;5034920;28;20201;-63
2023/02/09 06:16:13;;;;;;;15.07;11.80;;;4.10;61.80;;;;;;5037684;28;20190;-63
2023/02/09 06:18:39;;;;;;;17.43;13.07;;;4.10;62.10;;;;;;5052050;28;20383;-63
2023/02/09 06:21:05;;;;;;;18.50;11.90;;;4.20;62.20;;;;;;5043847;28;20182;-66
2023/02/09 06:23:31;;;;;;;14.70;11.43;;;4.20;62.00;;;;;;5032421;28;20395;-63
2023/02/09 06:25:57;;;;;;;17.90;12.60;;;4.20;61.90;;;;;;5014864;28;20380;-64
2023/02/09 06:28:23;;;;;;;19.90;13.03;;;4.10;62.00;;;;;;5014108;28;20733;-63
2023/02/09 06:30:50;;;;;;;17.35;11.95;;;4.00;62.20;;;;;;5035770;28;20182;-63
2023/02/09 06:33:16;;;;;;;16.35;11.70;;;4.00;63.40;;;;;;5014938;28;20190;-63
2023/02/09 06:35:43;;;;;;;19.60;12.30;;;4.10;63.70;;;;;;5032074;28;20174;-63
2023/02/09 06:38:09;;;;;;;17.90;11.43;;;4.10;64.20;;;;;;5031405;28;20627;-64
2023/02/09 06:40:34;;;;;;;16.90;11.97;;;4.10;64.20;;;;;;4997816;28;20237;-63
2023/02/09 06:43:00;;;;;;;16.30;13.13;;;4.20;64.30;;;;;;5032333;28;20773;-64
2023/02/09 06:45:26;;;;;;;19.13;12.73;;;4.20;64.00;;;;;;5014055;28;20556;-66
2023/02/09 06:47:51;;;;;;;17.07;12.40;;;4.30;64.10;;;;;;5032712;28;20186;-66
2023/02/09 06:50:18;;;;;;;21.40;13.70;;;4.40;70.90;;;;;;5031268;28;20182;-69
2023/02/09 06:52:44;;;;;;;14.70;11.35;;;5.20;79.00;;;;;;5014199;28;20409;-67
2023/02/09 06:55:10;;;;;;;19.33;14.07;;;6.10;77.30;;;;;;5031621;28;20214;-67
2023/02/09 06:57:36;;;;;;;16.33;12.67;;;6.90;70.80;;;;;;5032087;28;20389;-67
2023/02/09 07:00:04;;;;;;;15.27;13.67;;;7.40;68.70;;;;;;5032134;28;20397;-65
2023/02/09 07:02:30;;;;;;;13.67;11.77;;;8.20;91.40;;;;;;5031363;28;20500;-65
2023/02/09 07:04:56;;;;;;;17.53;12.60;;;8.40;73.80;;;;;;5032629;28;20412;-65
2023/02/09 07:07:23;;;;;;;16.60;12.73;;;8.20;63.50;;;;;;5017476;28;20180;-65
2023/02/09 07:09:48;;;;;;;18.00;13.90;;;7.90;59.50;;;;;;5036454;28;20589;-65
2023/02/09 07:12:14;;;;;;;14.90;12.90;;;7.60;58.40;;;;;;5027856;28;20514;-65
2023/02/09 07:14:40;;;;;;;18.77;13.37;;;7.30;57.80;;;;;;5055549;28;20208;-65
2023/02/09 07:17:06;;;;;;;17.20;13.13;;;7.00;57.30;;;;;;5055703;28;20233;-65
2023/02/09 07:19:32;;;;;;;17.80;12.60;;;6.80;57.20;;;;;;5055481;28;20184;-65
2023/02/09 07:21:57;;;;;;;18.80;13.53;;;6.50;57.90;;;;;;5055304;28;20508;-65
2023/02/09 07:24:24;;;;;;;17.70;13.30;;;6.40;58.50;;;;;;5054900;28;20171;-65
2023/02/09 07:26:49;;;;;;;15.30;13.13;;;6.20;58.80;;;;;;5037960;28;20604;-65
2023/02/09 07:29:16;;;;;;;18.20;12.50;;;6.10;58.50;;;;;;5034900;28;20508;-65
2023/02/09 07:31:41;;;;;;;17.88;13.23;;;6.00;58.50;;;;;;5035897;28;20902;-65
2023/02/09 07:34:07;;;;;;;16.43;11.90;;;5.90;58.80;;;;;;5034810;28;20211;-67
2023/02/09 07:36:33;;;;;;;20.73;13.10;;;5.80;59.80;;;;;;5017510;28;20187;-66
2023/02/09 07:38:59;;;;;;;19.70;13.80;;;5.70;62.10;;;;;;5001565;28;20437;-66
2023/02/09 07:41:25;;;;;;;18.50;14.20;;;5.50;60.50;;;;;;5034706;28;20285;-65
2023/02/09 07:43:51;;;;;;;19.60;14.37;;;5.40;60.80;;;;;;5035534;28;20210;-65
2023/02/09 07:46:20;;;;;;;20.75;14.20;;;5.30;61.10;;;;;;5029698;28;20751;-64
2023/02/09 07:48:46;;;;;;;19.85;13.65;;;5.20;61.30;;;;;;5054979;28;20667;-64
2023/02/09 07:51:18;;;;;;;21.45;14.82;;;5.20;62.20;;;;;;5036483;28;20174;-64
2023/02/09 07:53:45;;;;;;;16.35;12.40;;;5.20;62.90;;;;;;5037102;28;20241;-64
2023/02/09 07:56:11;;;;;;;19.17;12.90;;;5.10;63.60;;;;;;5052072;28;20618;-65
2023/02/09 07:58:36;;;;;;;19.50;13.52;;;5.00;62.80;;;;;;5032229;28;20180;-64
2023/02/09 08:01:05;;;;;;;20.63;13.47;;;5.10;63.60;;;;;;5046962;28;20530;-64
2023/02/09 08:03:33;;;;;;;20.08;13.55;;;5.00;63.60;;;;;;5026669;28;20185;-64
2023/02/09 08:06:22;;;;;;;17.85;12.25;;;4.90;64.40;;;;;;5034749;28;20182;-64
2023/02/09 08:08:50;;;;;;;17.15;13.30;;;5.00;64.20;;;;;;5039509;28;20693;-64
2023/02/09 08:11:26;;;;;;;16.75;13.50;;;5.10;63.70;;;;;;5027841;28;20646;-64
2023/02/09 08:13:54;;;;;;;18.35;12.32;;;5.20;62.90;;;;;;5043847;28;20210;-64
2023/02/09 08:16:23;;;;;;;17.13;12.27;;;5.20;63.00;;;;;;5053717;28;20181;-64
2023/02/09 08:18:54;;;;;;;17.02;12.32;;;5.20;62.50;;;;;;5054435;28;20186;-64
2023/02/09 08:21:21;;;;;;;17.17;12.45;;;5.20;62.00;;;;;;5032711;28;20233;-64
2023/02/09 08:23:50;;;;;;;20.92;13.20;;;5.10;62.00;;;;;;5034261;28;20179;-64
2023/02/09 08:26:17;;;;;;;17.70;12.50;;;5.10;62.70;;;;;;5046297;28;20189;-64
2023/02/09 08:28:44;;;;;;;19.52;14.77;;;5.10;62.90;;;;;;5054157;28;20626;-64
2023/02/09 08:31:17;;;;;;;15.88;11.95;;;5.20;63.00;;;;;;5053410;28;20186;-64
2023/02/09 08:33:44;;;;;;;17.83;13.90;;;5.30;63.50;;;;;;5050816;28;20739;-64
2023/02/09 08:36:12;;;;;;;16.20;10.50;;;5.10;63.00;;;;;;5053467;28;20535;-65
2023/02/09 08:38:38;;;;;;;21.65;15.02;;;5.10;62.80;;;;;;5034445;28;20190;-64
2023/02/09 08:41:05;;;;;;;17.90;12.67;;;5.20;63.10;;;;;;5027249;28;20371;-64
2023/02/09 08:43:31;;;;;;;15.23;13.07;;;5.30;63.00;;;;;;5068882;28;20774;-64
2023/02/09 08:46:06;;;;;;;18.48;12.57;;;5.40;62.70;;;;;;5053710;28;20214;-63
2023/02/09 08:48:33;;;;;;;22.65;14.13;;;5.50;63.10;;;;;;5057173;28;20174;-63
2023/02/09 08:50:59;;;;;;;19.35;13.43;;;5.60;65.20;;;;;;5060298;28;20210;-64
2023/02/09 08:53:26;;;;;;;21.73;13.83;;;5.70;63.80;;;;;;5061210;28;20193;-63
2023/02/09 08:55:52;;;;;;;17.77;13.27;;;5.80;63.90;;;;;;5056470;28;20450;-64
2023/02/09 08:58:18;;;;;;;17.03;13.97;;;5.80;65.00;;;;;;5054385;28;20194;-64
2023/02/09 09:00:44;;;;;;;18.20;13.17;;;5.90;64.50;;;;;;5055826;28;20432;-64
2023/02/09 09:03:09;;;;;;;18.80;13.40;;;6.00;63.70;;;;;;5061985;28;20439;-64
2023/02/09 09:05:35;;;;;;;18.80;12.00;;;6.00;63.20;;;;;;5054777;28;20545;-63
2023/02/09 09:08:02;;;;;;;18.43;13.23;;;6.10;62.80;;;;;;5052205;28;20205;-64
2023/02/09 09:10:28;;;;;;;17.63;14.53;;;6.20;61.30;;;;;;5052095;28;20211;-64
2023/02/09 09:12:54;;;;;;;17.70;14.47;;;6.20;62.20;;;;;;5053019;28;20517;-63
2023/02/09 09:15:20;;;;;;;17.30;12.17;;;6.30;62.20;;;;;;5064514;28;20548;-64
2023/02/09 09:17:46;;;;;;;19.63;14.27;;;6.30;62.00;;;;;;5073333;28;20261;-64
2023/02/09 09:20:12;;;;;;;22.77;13.50;;;6.40;60.40;;;;;;5073363;28;20484;-64
2023/02/09 09:22:38;;;;;;;16.93;12.20;;;6.50;60.60;;;;;;5071833;28;21337;-64
2023/02/09 09:25:04;;;;;;;18.50;12.27;;;6.50;59.80;;;;;;5071597;28;20499;-64
2023/02/09 09:27:36;;;;;;;16.73;13.53;;;6.60;59.30;;;;;;5072076;28;20425;-63
2023/02/09 09:30:03;;;;;;;15.40;12.77;;;6.80;59.10;;;;;;5072964;28;20771;-63
2023/02/09 09:32:29;;;;;;;16.00;12.53;;;6.90;58.50;;;;;;5071562;28;20501;-64
2023/02/09 09:35:02;;;;;;;16.37;11.73;;;7.10;58.80;;;;;;5072418;28;20801;-64
2023/02/09 09:37:27;;;;;;;17.20;13.97;;;7.30;58.50;;;;;;5072042;28;20403;-64
2023/02/09 09:39:53;;;;;;;14.80;12.17;;;7.50;58.40;;;;;;5073035;28;20415;-64
2023/02/09 09:42:42;;;;;;;14.93;12.20;;;7.70;58.30;;;;;;5054221;28;20233;-64
2023/02/09 09:45:17;;;;;;;16.40;12.13;;;7.60;56.50;;;;;;5040650;28;20201;-63
2023/02/09 09:47:44;;;;;;;17.77;12.93;;;7.90;56.30;;;;;;5016358;28;20471;-64
2023/02/09 09:50:24;;;;;;;17.43;12.70;;;8.00;55.30;;;;;;5052875;28;20420;-64
2023/02/09 09:52:59;;;;;;;14.70;11.50;;;8.10;55.70;;;;;;5052792;28;20456;-64
2023/02/09 09:55:28;;;;;;;16.73;13.10;;;8.50;56.00;;;;;;5052153;28;20443;-64
2023/02/09 09:57:57;;;;;;;16.33;13.20;;;8.60;56.00;;;;;;5052613;28;20436;-64
2023/02/09 10:00:26;;;;;;;15.80;11.73;;;8.90;55.70;;;;;;5052342;28;20475;-64
2023/02/09 10:02:52;;;;;;;18.73;12.27;;;9.10;55.30;;;;;;5052600;28;20492;-64
2023/02/09 10:05:27;;;;;;;17.00;11.67;;;9.20;54.30;;;;;;5051990;28;20413;-64
2023/02/09 10:08:06;;;;;;;17.70;12.30;;;9.30;53.40;;;;;;5052668;28;20419;-63
2023/02/09 10:11:08;;;;;;;16.40;12.00;;;9.40;53.00;;;;;;5052143;28;20509;-63
2023/02/09 10:13:38;;;;;;;14.57;12.70;;;9.60;53.70;;;;;;5051890;28;20456;-64
2023/02/09 10:16:16;;;;;;;15.10;12.40;;;9.70;52.80;;;;;;5039843;28;20439;-64
2023/02/09 10:18:43;;;;;;;15.90;13.63;;;9.70;52.20;;;;;;5032256;28;20407;-63
2023/02/09 10:21:15;;;;;;;17.10;14.30;;;9.70;52.00;;;;;;5044491;28;20425;-64
2023/02/09 10:23:47;;;;;;;14.83;13.00;;;9.80;51.90;;;;;;5052043;28;20418;-64
2023/02/09 10:26:24;;;;;;;19.67;12.40;;;9.70;51.20;;;;;;5052117;28;20401;-64
2023/02/09 10:28:53;;;;;;;13.03;10.77;;;9.70;52.20;;;;;;5034102;28;20421;-64
2023/02/09 10:31:30;;;;;;;14.97;12.97;;;9.80;51.50;;;;;;5051736;28;20439;-64
2023/02/09 10:34:06;;;;;;;15.67;12.47;;;9.60;51.40;;;;;;5034620;28;20471;-64
2023/02/09 10:36:36;;;;;;;16.40;13.57;;;9.80;51.30;;;;;;5033819;28;20942;-64
2023/02/09 10:39:10;;;;;;;16.30;12.30;;;10.00;50.30;;;;;;5051942;28;20906;-64
2023/02/09 10:41:38;;;;;;;15.40;13.30;;;10.00;49.80;;;;;;5051241;28;20996;-64
2023/02/09 10:44:16;;;;;;;15.90;13.00;;;10.00;50.40;;;;;;5050502;28;20444;-64
2023/02/09 10:46:42;;;;;;;17.57;11.50;;;10.00;49.00;;;;;;5052944;28;20415;-64
2023/02/09 10:49:27;;;;;;;13.67;12.23;;;10.10;49.30;;;;;;5038430;28;20948;-64
2023/02/09 10:52:06;;;;;;;15.57;12.40;;;10.10;49.40;;;;;;5056108;28;20418;-64
2023/02/09 10:54:32;;;;;;;13.70;11.83;;;9.80;49.50;;;;;;5055366;28;20458;-64
2023/02/09 10:56:57;;;;;;;14.50;11.30;;;10.00;49.80;;;;;;5056293;28;20418;-64
2023/02/09 10:59:25;;;;;;;12.93;10.60;;;10.10;49.40;;;;;;5055401;28;20175;-64
2023/02/09 11:02:01;;;;;;;15.00;11.60;;;10.30;49.00;;;;;;5056052;28;20564;-64
2023/02/09 11:04:39;;;;;;;12.33;10.70;;;10.40;48.80;;;;;;5055329;28;20428;-64
2023/02/09 11:07:11;;;;;;;12.23;10.00;;;10.50;49.30;;;;;;5055851;28;20407;-64
2023/02/09 11:09:45;;;;;;;13.60;11.23;;;10.80;48.30;;;;;;5055278;28;20423;-64
2023/02/09 11:12:12;;;;;;;13.47;10.50;;;10.90;48.40;;;;;;5055912;28;20400;-64
2023/02/09 11:14:38;;;;;;;13.90;11.30;;;10.80;47.10;;;;;;5046427;28;20468;-64
2023/02/09 11:17:23;;;;;;;15.13;10.30;;;10.90;47.20;;;;;;5035717;28;20420;-64
2023/02/09 11:20:07;;;;;;;12.53;9.90;;;10.90;47.20;;;;;;5035696;28;20446;-64
2023/02/09 11:23:11;;;;;;;11.60;10.07;;;11.10;47.80;;;;;;5017339;28;20410;-64
2023/02/09 11:25:47;;;;;;;14.13;10.70;;;11.20;47.00;;;;;;5034833;28;20484;-64
2023/02/09 11:28:56;;;;;;;13.17;11.83;;;11.30;47.20;;;;;;5035286;28;20393;-64
2023/02/09 11:31:40;;;;;;;14.23;12.43;;;11.40;46.50;;;;;;4935652;29;20416;-66
2023/02/09 11:34:16;;;;;;;12.93;10.60;;;11.50;46.50;;;;;;5033323;28;20880;-64
2023/02/09 11:36:54;;;;;;;12.97;10.33;;;11.50;46.80;;;;;;5035170;28;20905;-64
2023/02/09 11:39:28;;;;;;;11.57;10.17;;;11.60;46.40;;;;;;5035305;28;20468;-63
2023/02/09 11:45:03;;;;;;;13.20;11.50;;;11.70;46.50;;;;;;5054399;28;20561;-64
2023/02/09 11:47:43;;;;;;;13.80;11.10;;;11.70;46.00;;;;;;5054239;28;20407;-64
2023/02/09 11:50:17;;;;;;;13.67;11.83;;;11.60;45.70;;;;;;5053163;28;20758;-64
2023/02/09 11:52:55;;;;;;;12.53;11.10;;;11.70;45.80;;;;;;5035821;28;20428;-64
2023/02/09 11:55:32;;;;;;;13.67;12.10;;;11.70;45.60;;;;;;5053847;28;20870;-64
2023/02/09 11:58:08;;;;;;;13.33;11.30;;;11.50;45.90;;;;;;5053950;28;20488;-64
2023/02/09 12:00:43;;;;;;;14.17;12.67;;;11.60;46.60;;;;;;5054339;28;20395;-64
2023/02/09 12:03:11;;;;;;;15.23;11.23;;;11.60;45.50;;;;;;5054912;28;20498;-64
2023/02/09 12:05:37;;;;;;;11.87;10.07;;;11.60;46.50;;;;;;5052348;28;20435;-64
2023/02/09 12:08:32;;;;;;;12.53;10.50;;;11.50;45.60;;;;;;5054555;28;20400;-64
2023/02/09 12:11:22;;;;;;;12.80;11.03;;;11.50;46.10;;;;;;5045882;28;20755;-64
2023/02/09 12:14:11;;;;;;;13.20;11.73;;;11.60;45.90;;;;;;5053916;28;20506;-64
2023/02/09 12:16:42;;;;;;;13.83;10.80;;;11.50;44.80;;;;;;5054060;28;20458;-64
2023/02/09 12:19:35;;;;;;;15.43;11.77;;;11.50;45.60;;;;;;5054694;28;20400;-64
2023/02/09 12:22:44;;;;;;;11.53;10.00;;;11.50;45.20;;;;;;5052367;28;20424;-64
2023/02/09 12:25:45;;;;;;;11.70;10.60;;;11.40;45.50;;;;;;5052226;28;20434;-64
2023/02/09 12:28:15;;;;;;;14.03;9.60;;;11.40;45.60;;;;;;5054636;28;20408;-64
2023/02/09 12:30:41;;;;;;;12.50;10.60;;;11.60;45.80;;;;;;5052603;28;20420;-64
2023/02/09 12:33:23;;;;;;;12.63;10.87;;;11.50;45.40;;;;;;5054416;28;20416;-64
2023/02/09 12:36:11;;;;;;;12.17;10.87;;;11.20;45.20;;;;;;5053796;28;20259;-64
2023/02/09 12:38:49;;;;;;;11.73;9.60;;;11.20;45.80;;;;;;5053692;28;20424;-64
2023/02/09 12:41:24;;;;;;;15.70;11.20;;;11.10;46.30;;;;;;5045550;28;20496;-64
2023/02/09 12:44:03;;;;;;;12.27;10.17;;;11.00;45.80;;;;;;5037006;28;20522;-64
2023/02/09 12:46:29;;;;;;;13.30;11.07;;;11.00;45.80;;;;;;5053521;28;20400;-64
2023/02/09 12:49:00;;;;;;;13.23;10.20;;;11.20;46.00;;;;;;5054305;28;20469;-64
2023/02/09 12:51:46;;;;;;;14.60;10.87;;;11.20;45.40;;;;;;5035880;28;20201;-67
2023/02/09 12:54:41;;;;;;;16.87;10.90;;;11.30;45.80;;;;;;5053990;28;20447;-65
2023/02/09 12:57:17;;;;;;;13.40;10.80;;;11.30;44.70;;;;;;5035251;28;20454;-63
2023/02/09 12:59:49;;;;;;;12.90;11.17;;;11.10;45.00;;;;;;5052896;28;20917;-63
2023/02/09 13:02:34;;;;;;;12.50;10.50;;;11.20;45.30;;;;;;5053836;28;20512;-64
2023/02/09 13:05:18;;;;;;;12.70;11.37;;;11.10;45.00;;;;;;5053824;28;20413;-65